Time;durP1;ratioP1;P1;durP2;ratioP2;P2;SDS_P1;SDS_P2;PMS_P1;PMS_P2;Temp;Humidity;BMP_temperature;BMP_pressure;BME280_temperature;BME280_humidity;BME280_pressure;Samples;Min_cycle;Max_cycle;Signal;HPM_P1;HPM_P2
2023/06/23 00:00:00;;;;;;;;;;;16.70;99.90;;;;;;5038747;28;19917;-83
2023/06/23 00:02:27;;;;;;;;;;;16.70;99.90;;;;;;5040766;28;19905;-66
2023/06/23 00:04:53;;;;;;;;;;;16.60;99.90;;;;;;5015201;28;20314;-65
2023/06/23 00:07:19;;;;;;;;;;;16.60;99.90;;;;;;5042363;28;20000;-65
2023/06/23 00:09:44;;;;;;;;;;;16.60;99.90;;;;;;5035479;28;19954;-66
2023/06/23 00:12:10;;;;;;;;;;;16.60;99.90;;;;;;5034504;28;19937;-65
2023/06/23 00:14:36;;;;;;;;;;;16.60;99.90;;;;;;5034492;28;20222;-66
2023/06/23 00:17:02;;;;;;;;;;;16.60;99.90;;;;;;5016632;28;19988;-65
2023/06/23 00:19:28;;;;;;;;;;;16.60;99.90;;;;;;5034733;28;20308;-66
2023/06/23 00:21:53;;;;;;;;;;;16.60;99.90;;;;;;5033870;28;19976;-65
2023/06/23 00:24:19;;;;;;;;;;;16.60;99.90;;;;;;5034778;28;19940;-65
2023/06/23 00:26:44;;;;;;;;;;;16.60;99.90;;;;;;5034771;28;19909;-91
2023/06/23 00:29:11;;;;;;;;;;;16.60;99.90;;;;;;5034139;28;19913;-66
2023/06/23 00:31:37;;;;;;;;;;;16.70;99.90;;;;;;5034894;28;19920;-65
2023/06/23 00:34:03;;;;;;;;;;;16.70;99.90;;;;;;5034719;28;19905;-65
2023/06/23 00:36:30;;;;;;;;;;;16.70;99.90;;;;;;5034085;28;19916;-78
2023/06/23 00:38:56;;;;;;;;;;;16.80;99.90;;;;;;5034574;28;20013;-65
2023/06/23 00:41:22;;;;;;;;;;;16.80;99.90;;;;;;5034528;28;19905;-66
2023/06/23 00:43:50;;;;;;;;;;;16.80;99.90;;;;;;5034931;28;19917;-74
2023/06/23 00:46:17;;;;;;;;;;;16.80;99.90;;;;;;5017049;28;20008;-66
2023/06/23 00:48:43;;;;;;;;;;;16.80;99.90;;;;;;5016340;28;19905;-66
2023/06/23 00:51:09;;;;;;;;;;;16.80;99.90;;;;;;5034561;28;19909;-66
2023/06/23 00:53:34;;;;;;;;;;;16.80;99.90;;;;;;5031763;28;19958;-66
2023/06/23 00:56:00;;;;;;;;;;;16.80;99.90;;;;;;5033427;28;20250;-66
2023/06/23 00:58:27;;;;;;;;;;;16.80;99.90;;;;;;5033679;28;19962;-66
2023/06/23 01:00:54;;;;;;;;;;;16.80;99.90;;;;;;5009731;28;19916;-66
2023/06/23 01:03:20;;;;;;;;;;;16.80;99.90;;;;;;5032660;28;19905;-66
2023/06/23 01:05:46;;;;;;;;;;;16.80;99.90;;;;;;5015853;28;19959;-65
2023/06/23 01:08:13;;;;;;;;;;;16.80;99.90;;;;;;5034247;28;19905;-66
2023/06/23 01:10:50;;;;;;;;;;;16.80;99.90;;;;;;5034594;28;19919;-66
2023/06/23 01:13:22;;;;;;;;;;;16.70;99.90;;;;;;5034279;28;19913;-66
2023/06/23 01:15:57;;;;;;;;;;;16.70;99.90;;;;;;5028207;28;20044;-64
2023/06/23 01:18:27;;;;;;;;;;;16.70;99.90;;;;;;5032010;28;19909;-65
2023/06/23 01:20:55;;;;;;;;;;;16.70;99.90;;;;;;5038185;28;19905;-66
2023/06/23 01:23:20;;;;;;;;;;;16.70;99.90;;;;;;5037837;28;20013;-66
2023/06/23 01:25:54;;;;;;;;;;;16.70;99.90;;;;;;5037197;28;19967;-65
2023/06/23 01:28:31;;;;;;;;;;;16.60;99.90;;;;;;5037512;28;19913;-65
2023/06/23 01:31:00;;;;;;;;;;;16.60;99.90;;;;;;5037599;28;19920;-65
2023/06/23 01:33:28;;;;;;;;;;;16.60;99.90;;;;;;5037291;28;20108;-66
2023/06/23 01:36:03;;;;;;;;;;;16.70;99.90;;;;;;5037524;28;19905;-66
2023/06/23 01:38:32;;;;;;;;;;;16.70;99.90;;;;;;5035618;28;19913;-76
2023/06/23 01:40:58;;;;;;;;;;;16.70;99.90;;;;;;5019435;28;19913;-66
2023/06/23 01:43:29;;;;;;;;;;;16.70;99.90;;;;;;5037530;28;19962;-66
2023/06/23 01:46:02;;;;;;;;;;;16.60;99.90;;;;;;5036694;28;19909;-66
2023/06/23 01:48:28;;;;;;;;;;;16.60;99.90;;;;;;5036119;28;19908;-66
2023/06/23 01:50:54;;;;;;;;;;;16.60;99.90;;;;;;5037432;28;19912;-66
2023/06/23 01:53:20;;;;;;;;;;;16.60;99.90;;;;;;5036501;28;20307;-66
2023/06/23 01:55:46;;;;;;;;;;;16.60;99.90;;;;;;5036922;28;20216;-66
2023/06/23 01:58:13;;;;;;;;;;;16.60;99.90;;;;;;5036859;28;19913;-66
2023/06/23 02:00:39;;;;;;;;;;;16.60;99.90;;;;;;5036880;28;19940;-66
2023/06/23 02:03:06;;;;;;;;;;;16.60;99.90;;;;;;5034639;28;20000;-84
2023/06/23 02:05:31;;;;;;;;;;;16.50;99.90;;;;;;5036388;28;19912;-66
2023/06/23 02:07:58;;;;;;;;;;;16.50;99.90;;;;;;5028453;28;19905;-66
2023/06/23 02:10:27;;;;;;;;;;;16.40;99.90;;;;;;5033966;28;19905;-66
2023/06/23 02:12:53;;;;;;;;;;;16.40;99.90;;;;;;5036761;28;20308;-66
2023/06/23 02:15:20;;;;;;;;;;;16.40;99.90;;;;;;5036858;28;19909;-66
2023/06/23 02:17:47;;;;;;;;;;;16.40;99.90;;;;;;5037225;28;19909;-66
2023/06/23 02:20:16;;;;;;;;;;;16.40;99.90;;;;;;5027261;28;20352;-66
2023/06/23 02:22:49;;;;;;;;;;;16.40;99.90;;;;;;5037446;28;19908;-66
2023/06/23 02:25:15;;;;;;;;;;;16.40;99.90;;;;;;5036737;28;19909;-66
2023/06/23 02:27:41;;;;;;;;;;;16.40;99.90;;;;;;5035287;28;20308;-67
2023/06/23 02:30:07;;;;;;;;;;;16.40;99.90;;;;;;5035908;28;19916;-65
2023/06/23 02:32:33;;;;;;;;;;;16.40;99.90;;;;;;5036348;28;20003;-66
2023/06/23 02:34:59;;;;;;;;;;;16.40;99.90;;;;;;5036413;28;20031;-66
2023/06/23 02:37:26;;;;;;;;;;;16.40;99.90;;;;;;5035677;28;19936;-66
2023/06/23 02:39:54;;;;;;;;;;;16.40;99.90;;;;;;5036594;28;20200;-66
2023/06/23 02:42:21;;;;;;;;;;;16.50;99.90;;;;;;5036255;28;19912;-66
2023/06/23 02:44:53;;;;;;;;;;;16.50;99.90;;;;;;5036306;28;19948;-84
2023/06/23 02:47:19;;;;;;;;;;;16.50;99.90;;;;;;5035267;28;19909;-65
2023/06/23 02:49:46;;;;;;;;;;;16.40;99.90;;;;;;5035871;28;19917;-66
2023/06/23 02:52:13;;;;;;;;;;;16.40;99.90;;;;;;5035992;28;19916;-81
2023/06/23 02:54:41;;;;;;;;;;;16.40;99.90;;;;;;5035871;28;19924;-66
2023/06/23 02:57:09;;;;;;;;;;;16.40;99.90;;;;;;5035754;28;19913;-66
2023/06/23 02:59:35;;;;;;;;;;;16.40;99.90;;;;;;5016153;28;20409;-66
2023/06/23 03:02:01;;;;;;;;;;;16.40;99.90;;;;;;5035826;28;19913;-66
2023/06/23 03:04:28;;;;;;;;;;;16.40;99.90;;;;;;5008219;28;20032;-66
2023/06/23 03:06:53;;;;;;;;;;;16.40;99.90;;;;;;5034255;28;19987;-66
2023/06/23 03:09:19;;;;;;;;;;;16.30;99.90;;;;;;5036216;28;20296;-81
2023/06/23 03:11:45;;;;;;;;;;;16.30;99.90;;;;;;5032994;28;19955;-66
2023/06/23 03:14:11;;;;;;;;;;;16.30;99.90;;;;;;5034306;28;19909;-65
2023/06/23 03:16:44;;;;;;;;;;;16.40;99.90;;;;;;5034404;28;19916;-66
2023/06/23 03:19:10;;;;;;;;;;;16.40;99.90;;;;;;5035388;28;19921;-66
2023/06/23 03:21:37;;;;;;;;;;;16.40;99.90;;;;;;5035500;28;19916;-66
2023/06/23 03:24:07;;;;;;;;;;;16.40;99.90;;;;;;5029479;28;19909;-66
2023/06/23 03:26:36;;;;;;;;;;;16.50;99.90;;;;;;5035490;28;19955;-67
2023/06/23 03:29:03;;;;;;;;;;;16.50;99.90;;;;;;5034749;28;19916;-66
2023/06/23 03:31:29;;;;;;;;;;;16.50;99.90;;;;;;5035636;28;19948;-85
2023/06/23 03:33:56;;;;;;;;;;;16.50;99.90;;;;;;5034728;28;19909;-80
2023/06/23 03:36:23;;;;;;;;;;;16.50;99.90;;;;;;5034467;28;20291;-66
2023/06/23 03:39:01;;;;;;;;;;;16.60;99.90;;;;;;5035161;28;19951;-66
2023/06/23 03:41:30;;;;;;;;;;;16.50;99.90;;;;;;5034186;28;19970;-66
2023/06/23 03:43:57;;;;;;;;;;;16.60;99.90;;;;;;5034605;28;20323;-66
2023/06/23 03:46:26;;;;;;;;;;;16.60;99.90;;;;;;5034765;28;19915;-66
2023/06/23 03:48:54;;;;;;;;;;;16.60;99.90;;;;;;5033244;28;19932;-67
2023/06/23 03:51:20;;;;;;;;;;;16.70;99.90;;;;;;5035355;28;20171;-67
2023/06/23 03:53:47;;;;;;;;;;;16.70;99.90;;;;;;5034852;28;19913;-67
2023/06/23 03:56:15;;;;;;;;;;;16.60;99.90;;;;;;5034161;28;19956;-66
2023/06/23 03:58:42;;;;;;;;;;;16.60;99.90;;;;;;5035301;28;19921;-66
2023/06/23 04:01:08;;;;;;;;;;;16.60;99.90;;;;;;5037830;28;19909;-67
2023/06/23 04:03:36;;;;;;;;;;;16.50;99.90;;;;;;5036387;28;19909;-66
2023/06/23 04:06:04;;;;;;;;;;;16.50;99.90;;;;;;5034389;28;20035;-66
2023/06/23 04:08:31;;;;;;;;;;;16.50;99.90;;;;;;5035257;28;19908;-66
2023/06/23 04:10:57;;;;;;;;;;;16.50;99.90;;;;;;5039698;28;20488;-67
2023/06/23 04:13:25;;;;;;;;;;;16.60;99.90;;;;;;5019360;28;19912;-67
2023/06/23 04:15:52;;;;;;;;;;;16.60;99.90;;;;;;5038111;28;19913;-66
2023/06/23 04:18:18;;;;;;;;;;;16.60;99.90;;;;;;5033488;28;20761;-66
2023/06/23 04:20:45;;;;;;;;;;;16.50;99.90;;;;;;5037351;28;19908;-67
2023/06/23 04:23:11;;;;;;;;;;;16.50;99.90;;;;;;5034350;28;19916;-69
2023/06/23 04:25:37;;;;;;;;;;;16.50;99.90;;;;;;5039807;28;19909;-66
2023/06/23 04:28:03;;;;;;;;;;;16.60;99.90;;;;;;5039530;28;19909;-67
2023/06/23 04:30:31;;;;;;;;;;;16.60;99.90;;;;;;5038788;28;19996;-84
2023/06/23 04:32:58;;;;;;;;;;;16.60;99.90;;;;;;5036555;28;19954;-66
2023/06/23 04:35:23;;;;;;;;;;;16.60;99.90;;;;;;5036875;28;19912;-66
2023/06/23 04:37:56;;;;;;;;;;;16.60;99.90;;;;;;5039303;28;19909;-66
2023/06/23 04:40:31;;;;;;;;;;;16.70;99.90;;;;;;5034384;28;19905;-66
2023/06/23 04:43:18;;;;;;;;;;;16.70;99.90;;;;;;5038141;28;19915;-66
2023/06/23 04:45:51;;;;;;;;;;;16.70;99.90;;;;;;5035544;28;19951;-66
2023/06/23 04:48:21;;;;;;;;;;;16.80;99.90;;;;;;5034787;28;19973;-66
2023/06/23 04:50:47;;;;;;;;;;;16.90;99.90;;;;;;5035571;28;19905;-66
2023/06/23 04:53:16;;;;;;;;;;;16.90;99.90;;;;;;5024568;28;19909;-66
2023/06/23 04:55:43;;;;;;;;;;;17.00;99.90;;;;;;5050564;28;20259;-66
2023/06/23 04:58:10;;;;;;;;;;;17.00;99.90;;;;;;5041110;28;20272;-66
2023/06/23 05:00:38;;;;;;;;;;;17.10;99.90;;;;;;5039544;28;19971;-67
2023/06/23 05:03:04;;;;;;;;;;;17.10;99.90;;;;;;5040156;28;19909;-66
2023/06/23 05:05:30;;;;;;;;;;;17.10;99.90;;;;;;5043338;28;19913;-66
2023/06/23 05:07:57;;;;;;;;;;;17.30;99.90;;;;;;5039860;28;20232;-84
2023/06/23 05:10:23;;;;;;;;;;;17.30;99.90;;;;;;5038432;28;20284;-66
2023/06/23 05:12:50;;;;;;;;;;;17.30;99.90;;;;;;5037844;28;19915;-66
2023/06/23 05:15:17;;;;;;;;;;;17.40;99.90;;;;;;5037477;28;19924;-85
2023/06/23 05:17:44;;;;;;;;;;;17.40;99.90;;;;;;5038062;28;20227;-66
2023/06/23 05:20:11;;;;;;;;;;;17.50;99.90;;;;;;5038114;28;19915;-66
2023/06/23 05:22:38;;;;;;;;;;;17.60;99.90;;;;;;5037953;28;20007;-67
2023/06/23 05:25:06;;;;;;;;;;;17.60;99.90;;;;;;5036441;28;19909;-67
2023/06/23 05:27:33;;;;;;;;;;;17.70;99.90;;;;;;5030073;28;19909;-68
2023/06/23 05:29:59;;;;;;;;;;;17.70;99.90;;;;;;5037891;28;19909;-66
2023/06/23 05:32:27;;;;;;;;;;;17.70;99.90;;;;;;5032985;28;19909;-78
2023/06/23 05:34:55;;;;;;;;;;;17.80;99.90;;;;;;5034032;28;20346;-67
2023/06/23 05:37:23;;;;;;;;;;;17.80;99.90;;;;;;5037577;28;19924;-67
2023/06/23 05:39:48;;;;;;;;;;;17.90;99.90;;;;;;5020071;28;19967;-67
2023/06/23 05:42:14;;;;;;;;;;;18.00;99.90;;;;;;5038034;28;19913;-67
2023/06/23 05:44:40;;;;;;;;;;;18.10;99.90;;;;;;5037158;28;19935;-67
2023/06/23 05:47:07;;;;;;;;;;;18.20;99.90;;;;;;5037666;28;19979;-67
2023/06/23 05:49:37;;;;;;;;;;;18.20;99.90;;;;;;5037440;28;19905;-83
2023/06/23 05:52:04;;;;;;;;;;;18.20;99.90;;;;;;5037256;28;19905;-82
2023/06/23 05:54:30;;;;;;;;;;;18.20;99.90;;;;;;5035987;28;19983;-85
2023/06/23 05:56:57;;;;;;;;;;;18.20;99.90;;;;;;5036984;28;20238;-66
2023/06/23 05:59:36;;;;;;;;;;;18.40;99.90;;;;;;5037144;28;20031;-67
2023/06/23 06:02:03;;;;;;;;;;;18.40;99.90;;;;;;5024534;28;19905;-66
2023/06/23 06:04:33;;;;;;;;;;;18.50;99.90;;;;;;5036368;28;19916;-80
2023/06/23 06:06:59;;;;;;;;;;;18.50;99.90;;;;;;5035934;28;19995;-66
2023/06/23 06:09:27;;;;;;;;;;;18.50;99.90;;;;;;5037359;28;20003;-66
2023/06/23 06:11:54;;;;;;;;;;;18.60;99.90;;;;;;5036914;28;19951;-66
2023/06/23 06:14:20;;;;;;;;;;;18.60;99.90;;;;;;5036967;28;19909;-66
2023/06/23 06:16:47;;;;;;;;;;;18.70;99.90;;;;;;5018590;28;19956;-67
2023/06/23 06:19:13;;;;;;;;;;;18.70;99.90;;;;;;5037127;28;19909;-66
2023/06/23 06:21:39;;;;;;;;;;;18.70;99.90;;;;;;5036802;28;19955;-85
2023/06/23 06:24:06;;;;;;;;;;;18.80;99.90;;;;;;5036782;28;19940;-67
2023/06/23 06:26:31;;;;;;;;;;;18.90;99.90;;;;;;5036498;28;19955;-66
2023/06/23 06:28:58;;;;;;;;;;;19.00;99.90;;;;;;5036656;28;19905;-67
2023/06/23 06:31:24;;;;;;;;;;;19.10;99.90;;;;;;5037284;28;19936;-67
2023/06/23 06:33:51;;;;;;;;;;;19.10;99.90;;;;;;5015154;28;19913;-67
2023/06/23 06:36:18;;;;;;;;;;;19.10;99.90;;;;;;5036660;28;19959;-80
2023/06/23 06:38:45;;;;;;;;;;;19.20;99.90;;;;;;5040080;28;19909;-83
2023/06/23 06:41:11;;;;;;;;;;;19.20;99.90;;;;;;5036545;28;19924;-66
2023/06/23 06:43:36;;;;;;;;;;;19.30;99.90;;;;;;5039699;28;19949;-66
2023/06/23 06:46:03;;;;;;;;;;;19.30;99.90;;;;;;5040990;28;20009;-66
2023/06/23 06:48:31;;;;;;;;;;;19.30;99.90;;;;;;5038558;28;19952;-66
2023/06/23 06:50:57;;;;;;;;;;;19.40;99.90;;;;;;5019382;28;19927;-66
2023/06/23 06:53:24;;;;;;;;;;;19.40;99.90;;;;;;5037834;28;19992;-66
2023/06/23 06:55:50;;;;;;;;;;;19.40;99.90;;;;;;5047753;28;19905;-66
2023/06/23 06:58:16;;;;;;;;;;;19.50;99.90;;;;;;5033652;28;20259;-66
2023/06/23 07:00:43;;;;;;;;;;;19.50;99.90;;;;;;5042484;28;19913;-66
2023/06/23 07:03:12;;;;;;;;;;;19.50;99.90;;;;;;5041284;28;20308;-84
2023/06/23 07:05:38;;;;;;;;;;;19.60;99.90;;;;;;5043085;28;19992;-66
2023/06/23 07:08:05;;;;;;;;;;;19.70;99.90;;;;;;5037201;28;20279;-67
2023/06/23 07:10:35;;;;;;;;;;;19.70;99.90;;;;;;5040445;28;20039;-67
2023/06/23 07:13:01;;;;;;;;;;;19.80;99.90;;;;;;5042950;28;20255;-67
2023/06/23 07:15:27;;;;;;;;;;;19.70;99.90;;;;;;5041160;28;19905;-66
2023/06/23 07:17:52;;;;;;;;;;;19.80;99.90;;;;;;5037502;28;19958;-66
2023/06/23 07:20:18;;;;;;;;;;;19.80;99.90;;;;;;5044081;28;20307;-85
2023/06/23 07:22:44;;;;;;;;;;;19.80;99.90;;;;;;5040295;28;19909;-65
2023/06/23 07:25:10;;;;;;;;;;;19.80;99.90;;;;;;5037696;28;20247;-66
2023/06/23 07:27:36;;;;;;;;;;;19.90;99.90;;;;;;5040471;28;19963;-82
2023/06/23 07:30:02;;;;;;;;;;;19.90;99.90;;;;;;5040163;28;19955;-67
2023/06/23 07:32:28;;;;;;;;;;;19.90;99.90;;;;;;5039652;28;20266;-66
2023/06/23 07:34:54;;;;;;;;;;;20.00;99.90;;;;;;5038417;28;19905;-67
2023/06/23 07:37:20;;;;;;;;;;;20.10;99.90;;;;;;5036542;28;19909;-79
2023/06/23 07:39:45;;;;;;;;;;;20.20;99.90;;;;;;5038951;28;20014;-66
2023/06/23 07:42:11;;;;;;;;;;;20.20;99.90;;;;;;5040096;28;19909;-67
2023/06/23 07:44:37;;;;;;;;;;;20.20;99.90;;;;;;5027239;28;19996;-66
2023/06/23 07:47:03;;;;;;;;;;;20.20;99.90;;;;;;5037460;28;19909;-67
2023/06/23 07:49:29;;;;;;;;;;;20.10;99.90;;;;;;5040029;28;20288;-79
2023/06/23 07:52:00;;;;;;;;;;;20.20;99.90;;;;;;5041206;28;19931;-67
2023/06/23 07:54:28;;;;;;;;;;;20.30;99.90;;;;;;5038972;28;20291;-85
2023/06/23 07:56:54;;;;;;;;;;;20.40;99.90;;;;;;5037510;28;20303;-67
2023/06/23 07:59:20;;;;;;;;;;;20.50;99.90;;;;;;5040110;28;19921;-77
2023/06/23 08:01:46;;;;;;;;;;;20.60;99.90;;;;;;5036207;28;19919;-66
2023/06/23 08:04:11;;;;;;;;;;;20.70;99.90;;;;;;5043535;28;19955;-66
2023/06/23 08:06:37;;;;;;;;;;;20.80;99.90;;;;;;5045678;28;20222;-67
2023/06/23 08:09:02;;;;;;;;;;;20.90;99.90;;;;;;5033453;28;19952;-67
2023/06/23 08:11:34;;;;;;;;;;;21.00;99.90;;;;;;5034428;28;19959;-86
2023/06/23 08:14:00;;;;;;;;;;;21.10;99.90;;;;;;5034307;28;20243;-67
2023/06/23 08:16:26;;;;;;;;;;;21.30;99.90;;;;;;5033714;28;19920;-67
2023/06/23 08:18:52;;;;;;;;;;;21.30;99.90;;;;;;5034652;28;19920;-86
2023/06/23 08:21:18;;;;;;;;;;;21.30;99.90;;;;;;5034871;28;19909;-67
2023/06/23 08:23:46;;;;;;;;;;;21.50;99.90;;;;;;5034952;28;20039;-67
2023/06/23 08:26:12;;;;;;;;;;;21.60;99.90;;;;;;5043798;28;19909;-72
2023/06/23 08:28:38;;;;;;;;;;;21.70;99.90;;;;;;5042112;28;19954;-93
2023/06/23 08:31:03;;;;;;;;;;;21.80;99.90;;;;;;5042191;28;19905;-66
2023/06/23 08:33:29;;;;;;;;;;;21.90;99.90;;;;;;5041610;28;19984;-83
2023/06/23 08:35:54;;;;;;;;;;;22.10;99.90;;;;;;5040779;28;19908;-66
2023/06/23 08:38:22;;;;;;;;;;;22.40;99.90;;;;;;5021992;28;19963;-76
2023/06/23 08:40:48;;;;;;;;;;;22.30;99.90;;;;;;5040858;28;19955;-86
2023/06/23 08:43:15;;;;;;;;;;;22.20;99.90;;;;;;5041552;28;20247;-67
2023/06/23 08:45:43;;;;;;;;;;;22.20;99.90;;;;;;5036150;28;19913;-71
2023/06/23 08:48:09;;;;;;;;;;;22.30;99.90;;;;;;5041316;28;19909;-66
2023/06/23 08:50:35;;;;;;;;;;;22.30;99.90;;;;;;5040974;28;20212;-67
2023/06/23 08:53:01;;;;;;;;;;;22.30;99.90;;;;;;5041340;28;19915;-65
2023/06/23 08:55:27;;;;;;;;;;;22.30;99.90;;;;;;5040878;28;19909;-66
2023/06/23 08:57:53;;;;;;;;;;;22.40;99.90;;;;;;5031290;28;19905;-67
2023/06/23 09:00:18;;;;;;;;;;;22.50;99.90;;;;;;5040985;28;19921;-66
2023/06/23 09:02:44;;;;;;;;;;;22.60;99.90;;;;;;5041771;28;19909;-88
2023/06/23 09:05:10;;;;;;;;;;;22.60;99.90;;;;;;5040953;28;19909;-66
2023/06/23 09:07:35;;;;;;;;;;;22.80;99.90;;;;;;5040471;28;19913;-66
2023/06/23 09:10:01;;;;;;;;;;;22.90;99.90;;;;;;5041155;28;20296;-66
2023/06/23 09:12:27;;;;;;;;;;;22.80;99.90;;;;;;5040761;28;19909;-66
2023/06/23 09:14:53;;;;;;;;;;;22.80;99.90;;;;;;5041105;28;20280;-65
2023/06/23 09:17:19;;;;;;;;;;;22.80;99.90;;;;;;5040966;28;20347;-65
2023/06/23 09:19:49;;;;;;;;;;;22.90;99.90;;;;;;5040662;28;19913;-91
2023/06/23 09:22:20;;;;;;;;;;;22.90;99.90;;;;;;5040896;28;20387;-66
2023/06/23 09:24:49;;;;;;;;;;;23.10;99.90;;;;;;5043419;28;20307;-67
2023/06/23 09:27:15;;;;;;;;;;;23.10;99.90;;;;;;5038916;28;20369;-88
2023/06/23 09:29:40;;;;;;;;;;;23.10;99.90;;;;;;5042921;28;19916;-67
2023/06/23 09:32:09;;;;;;;;;;;23.20;99.90;;;;;;5044266;28;19912;-67
2023/06/23 09:34:36;;;;;;;;;;;23.20;99.90;;;;;;5043969;28;19905;-67
2023/06/23 09:37:20;;;;;;;;;;;23.30;99.90;;;;;;5047761;28;19954;-66
2023/06/23 09:39:48;;;;;;;;;;;23.20;99.90;;;;;;5034351;28;20445;-65
2023/06/23 09:42:14;;;;;;;;;;;23.20;99.90;;;;;;5041848;28;19913;-65
2023/06/23 09:44:40;;;;;;;;;;;23.20;99.90;;;;;;5038051;28;19940;-65
2023/06/23 09:47:06;;;;;;;;;;;23.20;99.90;;;;;;5036955;28;20296;-65
2023/06/23 09:49:38;;;;;;;;;;;23.40;99.90;;;;;;5037652;28;19964;-66
2023/06/23 09:52:04;;;;;;;;;;;23.30;99.90;;;;;;5037413;28;20409;-66
2023/06/23 09:54:30;;;;;;;;;;;23.30;99.90;;;;;;5037286;28;19909;-67
2023/06/23 09:57:04;;;;;;;;;;;23.30;99.90;;;;;;5035685;28;19909;-65
2023/06/23 09:59:30;;;;;;;;;;;23.30;99.90;;;;;;5036327;28;19917;-66
2023/06/23 10:01:55;;;;;;;;;;;23.30;99.90;;;;;;5037400;28;19931;-67
2023/06/23 10:04:26;;;;;;;;;;;23.40;99.90;;;;;;5037102;28;20200;-66
2023/06/23 10:06:52;;;;;;;;;;;23.40;99.90;;;;;;5037033;28;20331;-67
2023/06/23 10:09:22;;;;;;;;;;;23.40;99.90;;;;;;5037230;28;19943;-66
2023/06/23 10:11:47;;;;;;;;;;;23.40;99.90;;;;;;5037018;28;19913;-66
2023/06/23 10:14:15;;;;;;;;;;;23.50;99.90;;;;;;5037323;28;19954;-67
2023/06/23 10:16:43;;;;;;;;;;;23.50;99.90;;;;;;5037044;28;19913;-67
2023/06/23 10:19:09;;;;;;;;;;;23.50;99.90;;;;;;5035753;28;20322;-85
2023/06/23 10:21:35;;;;;;;;;;;23.60;99.90;;;;;;5035536;28;20250;-83
2023/06/23 10:24:02;;;;;;;;;;;23.60;99.90;;;;;;5036651;28;20003;-65
2023/06/23 10:26:31;;;;;;;;;;;23.50;99.90;;;;;;5037083;28;19905;-67
2023/06/23 10:28:58;;;;;;;;;;;23.50;99.90;;;;;;5036970;28;19963;-67
2023/06/23 10:31:24;;;;;;;;;;;23.60;99.90;;;;;;5037231;28;19905;-66
2023/06/23 10:33:51;;;;;;;;;;;23.60;99.90;;;;;;5036739;28;19979;-67
2023/06/23 10:36:20;;;;;;;;;;;23.60;99.90;;;;;;5036747;28;19909;-67
2023/06/23 10:38:49;;;;;;;;;;;23.60;99.90;;;;;;5019015;28;19921;-83
2023/06/23 10:41:15;;;;;;;;;;;23.70;99.90;;;;;;5039372;28;19905;-66
2023/06/23 10:43:45;;;;;;;;;;;23.70;99.90;;;;;;5032346;28;20307;-67
2023/06/23 10:46:11;;;;;;;;;;;23.80;99.90;;;;;;5042037;28;19995;-66
2023/06/23 10:48:37;;;;;;;;;;;23.80;99.90;;;;;;5037205;28;19995;-67
2023/06/23 10:51:03;;;;;;;;;;;23.80;99.90;;;;;;5037285;28;20376;-66
2023/06/23 10:53:31;;;;;;;;;;;23.80;99.90;;;;;;5040301;28;19919;-65
2023/06/23 10:55:57;;;;;;;;;;;23.90;99.90;;;;;;5017877;28;20352;-81
2023/06/23 10:58:27;;;;;;;;;;;23.90;99.90;;;;;;5038599;28;20019;-68
2023/06/23 11:00:53;;;;;;;;;;;23.90;99.90;;;;;;5036173;28;20299;-67
2023/06/23 11:03:24;;;;;;;;;;;24.00;99.70;;;;;;5037976;28;19912;-66
2023/06/23 11:05:54;;;;;;;;;;;24.10;99.90;;;;;;5034625;28;19909;-82
2023/06/23 11:08:26;;;;;;;;;;;24.10;99.90;;;;;;5035510;28;20208;-67
2023/06/23 11:10:56;;;;;;;;;;;24.10;99.80;;;;;;5018351;28;19913;-84
2023/06/23 11:13:41;;;;;;;;;;;24.20;99.90;;;;;;5038683;28;19909;-66
2023/06/23 11:16:10;;;;;;;;;;;24.10;99.90;;;;;;5034163;28;19940;-83
2023/06/23 11:18:36;;;;;;;;;;;24.20;99.90;;;;;;5038241;28;19932;-67
2023/06/23 11:21:22;;;;;;;;;;;24.30;99.90;;;;;;5037666;28;19913;-68
2023/06/23 11:24:06;;;;;;;;;;;24.20;99.80;;;;;;5026310;28;19917;-80
2023/06/23 11:26:32;;;;;;;;;;;24.20;99.90;;;;;;5034904;28;19967;-67
2023/06/23 11:28:58;;;;;;;;;;;24.20;99.90;;;;;;5018345;28;19944;-67
2023/06/23 11:31:30;;;;;;;;;;;24.10;99.90;;;;;;5038041;28;19970;-67
2023/06/23 11:33:56;;;;;;;;;;;24.20;99.90;;;;;;5022344;28;20331;-66
2023/06/23 11:36:23;;;;;;;;;;;24.20;99.90;;;;;;5038333;28;19956;-67
2023/06/23 11:38:49;;;;;;;;;;;24.20;99.70;;;;;;5035190;28;20201;-66
2023/06/23 11:41:22;;;;;;;;;;;24.30;99.90;;;;;;5034837;28;20263;-68
2023/06/23 11:43:48;;;;;;;;;;;24.20;99.90;;;;;;5035567;28;19955;-68
2023/06/23 11:46:14;;;;;;;;;;;24.10;99.90;;;;;;5035415;28;19909;-83
2023/06/23 11:48:40;;;;;;;;;;;24.10;99.90;;;;;;5035229;28;19919;-67
2023/06/23 11:51:06;;;;;;;;;;;24.10;99.90;;;;;;5017736;28;20003;-67
2023/06/23 11:53:33;;;;;;;;;;;24.10;99.90;;;;;;5017736;28;19905;-66
2023/06/23 11:55:59;;;;;;;;;;;24.10;99.90;;;;;;5034370;28;20212;-65
2023/06/23 11:58:28;;;;;;;;;;;24.10;99.90;;;;;;5035038;28;19916;-67
2023/06/23 12:00:53;;;;;;;;;;;24.20;99.90;;;;;;5034288;28;20003;-67
2023/06/23 12:03:19;;;;;;;;;;;24.30;99.90;;;;;;5034989;28;19992;-83
2023/06/23 12:05:46;;;;;;;;;;;24.40;99.90;;;;;;5017842;28;19971;-66
2023/06/23 12:08:13;;;;;;;;;;;24.40;99.90;;;;;;5034298;28;19966;-68
2023/06/23 12:10:40;;;;;;;;;;;24.60;99.90;;;;;;5041809;28;20050;-66
2023/06/23 12:13:08;;;;;;;;;;;24.60;99.70;;;;;;5040658;28;19952;-66
2023/06/23 12:15:41;;;;;;;;;;;24.60;99.70;;;;;;5034689;28;19905;-67
2023/06/23 12:18:07;;;;;;;;;;;24.60;99.90;;;;;;5034984;28;19912;-66
2023/06/23 12:20:34;;;;;;;;;;;24.40;99.40;;;;;;5034298;28;19917;-67
2023/06/23 12:23:06;;;;;;;;;;;24.30;99.70;;;;;;5034682;28;20296;-67
2023/06/23 12:25:32;;;;;;;;;;;24.30;99.80;;;;;;5034740;28;19905;-66
2023/06/23 12:27:58;;;;;;;;;;;24.30;99.90;;;;;;5035116;28;19905;-66
2023/06/23 12:30:24;;;;;;;;;;;24.30;99.90;;;;;;5033917;28;19917;-66
2023/06/23 12:32:52;;;;;;;;;;;24.30;99.90;;;;;;5034948;28;19920;-66
2023/06/23 12:35:18;;;;;;;;;;;24.40;99.90;;;;;;5040003;28;19905;-81
2023/06/23 12:37:47;;;;;;;;;;;24.40;99.90;;;;;;5035384;28;19909;-67
2023/06/23 12:40:32;;;;;;;;;;;24.50;99.70;;;;;;5034172;28;20014;-67
2023/06/23 12:42:58;;;;;;;;;;;24.50;99.70;;;;;;5034669;28;19910;-66
2023/06/23 12:45:24;;;;;;;;;;;24.50;99.20;;;;;;5034519;28;19955;-66
2023/06/23 12:47:54;;;;;;;;;;;24.60;99.90;;;;;;5035145;28;20356;-66
2023/06/23 12:50:31;;;;;;;;;;;24.60;99.90;;;;;;5033492;28;19909;-83
2023/06/23 12:53:00;;;;;;;;;;;24.50;99.50;;;;;;5034156;28;19910;-67
2023/06/23 12:55:25;;;;;;;;;;;24.50;99.90;;;;;;5034463;28;19916;-66
2023/06/23 12:57:51;;;;;;;;;;;24.50;99.70;;;;;;5035061;28;19905;-66
2023/06/23 13:00:17;;;;;;;;;;;24.50;99.90;;;;;;5033169;28;19924;-66
2023/06/23 13:02:43;;;;;;;;;;;24.40;99.90;;;;;;5034647;28;20051;-67
2023/06/23 13:05:09;;;;;;;;;;;24.40;99.90;;;;;;5033186;28;19996;-67
2023/06/23 13:07:35;;;;;;;;;;;24.40;99.90;;;;;;5031462;28;19905;-67
2023/06/23 13:10:02;;;;;;;;;;;24.40;99.60;;;;;;5034349;28;20371;-67
2023/06/23 13:12:28;;;;;;;;;;;24.30;99.80;;;;;;5035289;28;19909;-67
2023/06/23 13:14:53;;;;;;;;;;;24.20;99.90;;;;;;5038060;28;19905;-66
2023/06/23 13:17:19;;;;;;;;;;;24.20;99.90;;;;;;5037582;28;19909;-66
2023/06/23 13:19:45;;;;;;;;;;;24.30;99.90;;;;;;5038243;28;19909;-66
2023/06/23 13:22:11;;;;;;;;;;;24.40;99.90;;;;;;5037674;28;20012;-66
2023/06/23 13:24:37;;;;;;;;;;;24.20;99.90;;;;;;5038255;28;19991;-67
2023/06/23 13:27:07;;;;;;;;;;;24.40;99.90;;;;;;5037889;28;20007;-66
2023/06/23 13:29:39;;;;;;;;;;;24.40;99.90;;;;;;5019805;28;19909;-67
2023/06/23 13:32:06;;;;;;;;;;;24.40;99.80;;;;;;5037411;28;20252;-67
2023/06/23 13:34:32;;;;;;;;;;;24.40;99.50;;;;;;5037863;28;19999;-67
2023/06/23 13:36:57;;;;;;;;;;;24.40;99.40;;;;;;5029165;28;20004;-66
2023/06/23 13:39:23;;;;;;;;;;;24.30;99.90;;;;;;5035913;28;19991;-67
2023/06/23 13:41:48;;;;;;;;;;;24.30;99.90;;;;;;5037570;28;19917;-66
2023/06/23 13:44:17;;;;;;;;;;;24.30;99.90;;;;;;5037758;28;20300;-67
2023/06/23 13:46:45;;;;;;;;;;;24.30;99.90;;;;;;5037617;28;20283;-67
2023/06/23 13:49:12;;;;;;;;;;;24.30;99.90;;;;;;5037189;28;19913;-71
2023/06/23 13:51:38;;;;;;;;;;;24.30;99.90;;;;;;5037411;28;19912;-87
2023/06/23 13:54:04;;;;;;;;;;;24.20;99.90;;;;;;5035770;28;20359;-67
2023/06/23 13:56:30;;;;;;;;;;;24.10;99.90;;;;;;5037822;28;19996;-67
2023/06/23 13:58:55;;;;;;;;;;;24.10;99.90;;;;;;5037016;28;20330;-67
2023/06/23 14:01:21;;;;;;;;;;;24.20;99.90;;;;;;5036629;28;20188;-66
2023/06/23 14:03:49;;;;;;;;;;;24.20;99.90;;;;;;5037254;28;19909;-83
2023/06/23 14:06:15;;;;;;;;;;;24.20;99.90;;;;;;5037553;28;20008;-66
2023/06/23 14:08:41;;;;;;;;;;;24.20;99.90;;;;;;5037331;28;20007;-67
2023/06/23 14:11:06;;;;;;;;;;;24.30;99.90;;;;;;5036517;28;20289;-67
2023/06/23 14:13:32;;;;;;;;;;;24.40;99.90;;;;;;5037041;28;20008;-67
2023/06/23 14:15:57;;;;;;;;;;;24.40;99.90;;;;;;5037473;28;19912;-67